Time;durP1;ratioP1;P1;durP2;ratioP2;P2;SDS_P1;SDS_P2;PMS_P1;PMS_P2;Temp;Humidity;BMP_temperature;BMP_pressure;BME280_temperature;BME280_humidity;BME280_pressure;Samples;Min_cycle;Max_cycle;Signal;HPM_P1;HPM_P2
2023/11/06 00:01:44;;;;;;;1.23;0.40;;;;;;;15.41;100.00;101944.94;5010055;28;20033;-69
2023/11/06 00:04:09;;;;;;;1.17;0.50;;;;;;;15.05;100.00;101919.06;5022631;28;20029;-69
2023/11/06 00:06:35;;;;;;;0.55;0.43;;;;;;;14.92;100.00;101922.66;5016517;28;20421;-69
2023/11/06 00:09:03;;;;;;;0.63;0.40;;;;;;;14.93;100.00;101944.84;5019175;28;20421;-70
2023/11/06 00:11:29;;;;;;;1.75;0.47;;;;;;;14.87;100.00;101950.06;5010148;28;20087;-70
2023/11/06 00:13:54;;;;;;;1.85;0.40;;;;;;;15.04;100.00;102007.00;5019726;28;20057;-69
2023/11/06 00:16:20;;;;;;;1.08;0.50;;;;;;;15.05;100.00;102019.81;5015179;28;20029;-68
2023/11/06 00:18:47;;;;;;;1.67;0.40;;;;;;;14.61;100.00;101958.94;5011509;28;20423;-69
2023/11/06 00:21:12;;;;;;;1.10;0.32;;;;;;;15.03;100.00;102047.19;5010927;28;20041;-70
2023/11/06 00:23:38;;;;;;;0.75;0.30;;;;;;;14.94;100.00;102052.41;5009588;28;20029;-70
2023/11/06 00:26:03;;;;;;;1.00;0.30;;;;;;;14.97;100.00;102083.13;5010181;28;20026;-70
2023/11/06 00:28:29;;;;;;;0.40;0.22;;;;;;;15.00;100.00;102106.13;5022670;28;20030;-69
2023/11/06 00:30:56;;;;;;;3.15;0.30;;;;;;;14.88;100.00;102119.06;5008344;28;20048;-70
2023/11/06 00:33:21;;;;;;;2.20;0.30;;;;;;;14.65;100.00;102126.16;5022752;28;20032;-69
2023/11/06 00:35:46;;;;;;;0.80;0.28;;;;;;;14.32;100.00;102157.19;5022686;28;20029;-70
2023/11/06 00:38:12;;;;;;;1.23;0.20;;;;;;;14.73;100.00;102337.78;5009004;28;20463;-69
2023/11/06 00:40:38;;;;;;;1.75;0.30;;;;;;;14.33;100.00;102304.75;5021242;28;20057;-71
2023/11/06 00:43:03;;;;;;;1.63;0.38;;;;;;;14.68;100.00;102374.50;5016039;28;20061;-69
2023/11/06 00:45:29;;;;;;;0.82;0.30;;;;;;;13.99;100.00;102296.38;5018876;28;20044;-69
2023/11/06 00:47:54;;;;;;;0.73;0.20;;;;;;;14.69;100.00;102438.53;5013276;28;20038;-69
2023/11/06 00:50:20;;;;;;;0.80;0.20;;;;;;;14.65;100.00;102462.47;5019831;28;20120;-70
2023/11/06 00:52:46;;;;;;;0.57;0.20;;;;;;;14.05;100.00;102375.66;5009498;28;20481;-70
2023/11/06 00:55:11;;;;;;;2.28;0.35;;;;;;;14.55;100.00;102465.91;5013841;28;20116;-70
2023/11/06 00:57:37;;;;;;;2.47;0.20;;;;;;;14.26;100.00;102484.75;5007708;28;20124;-70
2023/11/06 01:00:04;;;;;;;0.95;0.20;;;;;;;14.14;100.00;102480.53;5008635;28;20079;-69
2023/11/06 01:02:30;;;;;;;0.60;0.30;;;;;;;13.78;100.00;102401.31;5008458;28;20033;-70
2023/11/06 01:04:56;;;;;;;1.27;0.30;;;;;;;14.09;100.00;102448.09;5019286;28;20095;-69
2023/11/06 01:07:21;;;;;;;0.60;0.10;;;;;;;13.85;100.00;102419.19;5009481;28;20069;-70
2023/11/06 01:09:46;;;;;;;1.08;0.20;;;;;;;14.13;100.00;102445.56;5021325;28;21751;-70
2023/11/06 01:12:12;;;;;;;0.65;0.20;;;;;;;14.16;100.00;102471.16;5007591;28;20030;-70
2023/11/06 01:14:38;;;;;;;1.17;0.20;;;;;;;13.98;100.00;102440.47;5020579;28;20117;-70
2023/11/06 01:17:03;;;;;;;0.88;0.10;;;;;;;13.94;100.00;102442.16;5009532;28;20084;-71
2023/11/06 01:19:29;;;;;;;3.03;0.30;;;;;;;14.33;100.00;102495.00;5017438;28;20044;-71
2023/11/06 01:21:55;;;;;;;0.55;0.13;;;;;;;13.92;100.00;102437.94;5017103;28;20069;-71
2023/11/06 01:24:20;;;;;;;0.75;0.20;;;;;;;14.17;100.00;102498.41;5008879;28;20113;-71
2023/11/06 01:26:46;;;;;;;2.53;0.20;;;;;;;14.21;100.00;102483.91;5012875;28;20034;-72
2023/11/06 01:29:12;;;;;;;0.60;0.20;;;;;;;14.20;100.00;102461.75;5009749;28;20484;-71
2023/11/06 01:31:38;;;;;;;1.17;0.20;;;;;;;14.19;100.00;102468.56;5015492;28;20479;-70
2023/11/06 01:34:04;;;;;;;0.50;0.10;;;;;;;13.94;100.00;102418.31;5014306;28;20025;-69
2023/11/06 01:36:30;;;;;;;1.05;0.10;;;;;;;14.16;100.00;102467.72;5009461;28;20033;-70
2023/11/06 01:38:55;;;;;;;0.70;0.15;;;;;;;13.88;100.00;102411.50;5020414;28;20103;-71
2023/11/06 01:41:21;;;;;;;0.45;0.20;;;;;;;14.29;100.00;102461.72;5016677;28;20145;-71
2023/11/06 01:43:46;;;;;;;0.65;0.10;;;;;;;14.56;100.00;102474.44;5012294;28;20112;-70
2023/11/06 01:46:11;;;;;;;0.90;0.17;;;;;;;14.36;100.00;102463.44;5019412;28;20044;-71
2023/11/06 01:48:37;;;;;;;1.02;0.30;;;;;;;13.86;100.00;102395.31;5008441;28;20455;-70
2023/11/06 01:51:04;;;;;;;0.57;0.20;;;;;;;14.25;100.00;102457.44;5015923;28;20491;-71
2023/11/06 01:53:30;;;;;;;0.28;0.20;;;;;;;13.93;100.00;102414.06;5019155;28;20040;-71
2023/11/06 01:55:57;;;;;;;0.43;0.20;;;;;;;14.17;100.00;102472.84;5009824;28;20419;-71
2023/11/06 01:58:22;;;;;;;0.15;0.10;;;;;;;14.50;100.00;102472.75;5015753;28;20029;-72
2023/11/06 02:00:51;;;;;;;0.35;0.15;;;;;;;13.76;100.00;102345.06;5007299;28;20519;-70
2023/11/06 02:03:17;;;;;;;1.85;0.30;;;;;;;14.48;100.00;102458.28;5013310;28;20107;-71
2023/11/06 02:05:44;;;;;;;0.98;0.20;;;;;;;14.39;100.00;102445.50;5021074;28;20120;-71
2023/11/06 02:08:10;;;;;;;0.93;0.20;;;;;;;14.17;100.00;102415.69;5008538;28;20033;-72
2023/11/06 02:10:35;;;;;;;0.77;0.30;;;;;;;14.18;100.00;102450.66;5007928;28;20575;-71
2023/11/06 02:13:01;;;;;;;0.70;0.30;;;;;;;13.83;100.00;102371.44;5017531;28;20033;-70
2023/11/06 02:15:27;;;;;;;0.40;0.30;;;;;;;14.12;100.00;102417.41;5018537;28;20041;-71
2023/11/06 02:17:52;;;;;;;1.10;0.32;;;;;;;14.00;100.00;102385.06;5015769;28;20072;-71
2023/11/06 02:20:18;;;;;;;0.50;0.40;;;;;;;14.39;100.00;102471.09;5016825;28;20040;-71
2023/11/06 02:22:44;;;;;;;1.85;0.30;;;;;;;14.02;100.00;102405.50;5008010;28;20030;-71
2023/11/06 02:25:10;;;;;;;1.00;0.30;;;;;;;14.16;100.00;102419.97;5007717;28;20120;-72
2023/11/06 02:27:37;;;;;;;0.40;0.20;;;;;;;14.43;100.00;102460.84;5021548;28;20108;-72
2023/11/06 02:30:03;;;;;;;0.93;0.25;;;;;;;14.50;100.00;102466.75;5021793;28;20038;-71
2023/11/06 02:32:29;;;;;;;0.82;0.20;;;;;;;14.49;100.00;102454.84;5018771;28;20037;-71
2023/11/06 02:34:55;;;;;;;0.25;0.15;;;;;;;14.48;100.00;102471.06;5007988;28;20462;-71
2023/11/06 02:37:20;;;;;;;1.48;0.20;;;;;;;13.85;100.00;102374.84;5016346;28;20029;-72
2023/11/06 02:39:46;;;;;;;0.77;0.30;;;;;;;14.37;100.00;102478.78;5007249;28;20036;-72
2023/11/06 02:42:11;;;;;;;2.20;0.32;;;;;;;14.28;100.00;102472.84;5019512;28;20120;-72
2023/11/06 02:44:36;;;;;;;1.30;0.10;;;;;;;13.97;100.00;102413.19;5019068;28;20041;-72
2023/11/06 02:47:02;;;;;;;0.30;0.20;;;;;;;14.23;100.00;102457.47;5018896;28;20034;-72
2023/11/06 02:49:28;;;;;;;0.60;0.30;;;;;;;14.19;100.00;102455.78;5008240;28;20038;-73
2023/11/06 02:51:54;;;;;;;0.85;0.20;;;;;;;13.83;100.00;102402.13;5018257;28;20025;-73
2023/11/06 02:54:22;;;;;;;1.30;0.30;;;;;;;14.08;100.00;102447.28;5006131;28;20132;-72
2023/11/06 02:56:51;;;;;;;1.45;0.30;;;;;;;14.31;100.00;102453.22;5006967;28;20042;-72
2023/11/06 02:59:16;;;;;;;1.35;0.47;;;;;;;14.30;100.00;102477.06;5017501;28;20060;-74
2023/11/06 03:01:42;;;;;;;0.60;0.20;;;;;;;13.79;100.00;102380.84;5019540;28;20065;-73
2023/11/06 03:04:12;;;;;;;0.45;0.40;;;;;;;14.18;100.00;102428.47;5017213;28;20030;-72
2023/11/06 03:06:38;;;;;;;2.10;0.40;;;;;;;13.81;100.00;102376.56;5007920;28;20022;-72
2023/11/06 03:09:05;;;;;;;1.10;0.40;;;;;;;13.99;100.00;102374.81;5022361;28;20033;-71
2023/11/06 03:11:31;;;;;;;0.80;0.45;;;;;;;14.02;100.00;102405.50;5009052;28;20038;-71
2023/11/06 03:13:56;;;;;;;1.38;0.60;;;;;;;14.23;100.00;102425.91;5021845;28;20042;-72
2023/11/06 03:16:21;;;;;;;1.95;0.70;;;;;;;14.03;100.00;102395.25;5022379;28;20028;-71
2023/11/06 03:18:47;;;;;;;2.13;1.10;;;;;;;13.88;100.00;102398.72;5023723;28;20112;-72
2023/11/06 03:21:12;;;;;;;1.83;1.05;;;;;;;14.02;100.00;102423.41;5021425;28;20041;-72
2023/11/06 03:23:38;;;;;;;1.02;0.65;;;;;;;13.98;100.00;102430.25;5022912;28;20026;-72
2023/11/06 03:26:05;;;;;;;1.88;1.60;;;;;;;13.53;100.00;102348.50;5019463;28;20029;-72
2023/11/06 03:28:31;;;;;;;2.88;1.90;;;;;;;14.03;100.00;102410.63;5022692;28;20074;-73
2023/11/06 03:30:56;;;;;;;11.18;8.40;;;;;;;13.92;100.00;102400.41;5010144;28;20100;-71
2023/11/06 03:33:21;;;;;;;9.55;8.55;;;;;;;13.92;100.00;102425.97;5023112;28;20036;-73
2023/11/06 03:35:47;;;;;;;11.55;7.78;;;;;;;13.57;100.00;102348.50;5021210;28;20030;-74
2023/11/06 03:38:12;;;;;;;6.47;4.30;;;;;;;13.83;100.00;102417.47;5019043;28;20030;-72
2023/11/06 03:40:38;;;;;;;3.20;1.20;;;;;;;13.88;100.00;102414.06;5027241;28;20069;-75
2023/11/06 03:43:04;;;;;;;1.23;0.70;;;;;;;13.46;100.00;102336.59;5009054;28;20030;-72
2023/11/06 03:45:30;;;;;;;0.80;0.47;;;;;;;13.87;100.00;102375.69;5020120;28;20114;-72
2023/11/06 03:47:55;;;;;;;1.33;0.70;;;;;;;13.75;100.00;102362.94;5020809;28;20045;-71
2023/11/06 03:50:21;;;;;;;2.15;0.80;;;;;;;13.69;100.00;102339.94;5016570;28;20170;-72
2023/11/06 03:52:46;;;;;;;0.93;0.70;;;;;;;13.76;100.00;102368.06;5023212;28;20033;-74
2023/11/06 03:55:13;;;;;;;3.45;0.70;;;;;;;13.51;100.00;102305.06;5023316;28;20526;-73
2023/11/06 03:57:38;;;;;;;0.82;0.43;;;;;;;13.79;100.00;102322.03;5023610;28;20037;-72
2023/11/06 04:00:06;;;;;;;1.30;0.55;;;;;;;13.37;100.00;102259.97;5023001;28;20284;-73
2023/11/06 04:02:31;;;;;;;1.75;0.80;;;;;;;13.50;100.00;102279.50;5018628;28;20068;-73
2023/11/06 04:04:56;;;;;;;2.10;0.90;;;;;;;13.50;100.00;102289.75;5019889;28;20411;-73
2023/11/06 04:07:22;;;;;;;1.73;0.70;;;;;;;13.80;100.00;102305.84;5019800;28;20040;-74
2023/11/06 04:09:47;;;;;;;2.92;0.90;;;;;;;13.35;100.00;102200.34;5018233;28;20042;-73
2023/11/06 04:12:13;;;;;;;2.22;1.15;;;;;;;13.48;100.00;102209.66;5010856;28;20099;-72
2023/11/06 04:14:39;;;;;;;3.83;1.33;;;;;;;13.76;100.00;102240.22;5021947;28;20524;-72
2023/11/06 04:17:04;;;;;;;1.90;1.20;;;;;;;13.53;100.00;102200.25;5009663;28;20378;-71
2023/11/06 04:19:29;;;;;;;1.50;1.30;;;;;;;13.13;100.00;102152.75;5010070;28;20041;-73
2023/11/06 04:21:55;;;;;;;1.88;1.20;;;;;;;13.56;100.00;102205.38;5018018;28;20041;-73
2023/11/06 04:24:20;;;;;;;1.65;1.00;;;;;;;13.27;100.00;102141.59;5020907;28;20025;-72
2023/11/06 04:26:46;;;;;;;3.25;1.50;;;;;;;13.00;100.00;102121.25;5016832;28;20041;-71
2023/11/06 04:29:11;;;;;;;2.88;1.02;;;;;;;13.49;100.00;102186.66;5003206;28;20034;-73
2023/11/06 04:31:36;;;;;;;2.17;0.90;;;;;;;13.61;100.00;102191.72;5008862;28;20033;-72
2023/11/06 04:34:02;;;;;;;2.63;1.45;;;;;;;13.55;100.00;102155.94;5017047;28;20033;-72
2023/11/06 04:36:27;;;;;;;2.53;1.35;;;;;;;13.07;100.00;102066.78;5016342;28;20488;-72
2023/11/06 04:38:53;;;;;;;3.10;2.00;;;;;;;13.01;100.00;102088.03;5021124;28;20496;-73
2023/11/06 04:41:18;;;;;;;3.03;2.10;;;;;;;12.92;100.00;102077.00;5021585;28;20505;-72
2023/11/06 04:43:44;;;;;;;16.05;8.70;;;;;;;12.98;100.00;102107.63;5019617;28;20036;-71
2023/11/06 04:46:09;;;;;;;10.57;7.18;;;;;;;13.27;100.00;102151.00;5018291;28;20037;-75
2023/11/06 04:48:35;;;;;;;11.90;9.43;;;;;;;12.95;100.00;102092.34;5015644;28;20042;-72
2023/11/06 04:51:00;;;;;;;10.30;5.85;;;;;;;13.14;100.00;102094.00;5019216;28;20021;-71
2023/11/06 04:53:26;;;;;;;6.28;4.68;;;;;;;13.20;100.00;102113.53;5019123;28;20025;-72
2023/11/06 04:55:51;;;;;;;9.18;5.60;;;;;;;13.68;100.00;102144.81;5020777;28;20029;-73
2023/11/06 04:58:17;;;;;;;6.72;4.40;;;;;;;13.21;100.00;102071.81;5023652;28;20478;-69
2023/11/06 05:00:42;;;;;;;6.63;4.28;;;;;;;13.54;100.00;102110.81;5014931;28;20116;-71
2023/11/06 05:03:07;;;;;;;7.97;5.03;;;;;;;13.65;100.00;102121.81;5014747;28;20113;-73
2023/11/06 05:05:33;;;;;;;8.25;4.68;;;;;;;13.80;100.00;102129.41;5006013;28;20073;-72
2023/11/06 05:07:59;;;;;;;5.07;3.95;;;;;;;13.29;100.00;102081.13;5018194;28;20114;-73
2023/11/06 05:10:24;;;;;;;7.10;5.40;;;;;;;13.42;100.00;102118.56;5021564;28;20029;-72
2023/11/06 05:12:49;;;;;;;6.03;2.88;;;;;;;14.86;100.00;102113.13;5022914;28;20473;-79
2023/11/06 05:15:15;;;;;;;7.32;4.70;;;;;;;14.63;100.00;102125.34;5008398;28;20053;-73
2023/11/06 05:17:40;;;;;;;4.10;3.17;;;;;;;13.32;100.00;102047.91;5008737;28;20035;-73
2023/11/06 05:20:09;;;;;;;6.85;3.80;;;;;;;13.26;100.00;102059.88;5020619;28;20030;-73
2023/11/06 05:22:37;;;;;;;5.20;4.13;;;;;;;13.56;100.00;102106.56;5018741;28;20030;-73
2023/11/06 05:25:03;;;;;;;4.68;4.00;;;;;;;13.51;100.00;102079.31;5009593;28;20112;-71
2023/11/06 05:27:28;;;;;;;4.60;3.58;;;;;;;13.75;100.00;102069.78;5016358;28;20111;-71
2023/11/06 05:29:54;;;;;;;5.53;3.80;;;;;;;13.99;100.00;102147.16;5009121;28;20111;-72
2023/11/06 05:32:19;;;;;;;4.72;4.10;;;;;;;14.27;100.00;102116.25;5012420;28;20120;-74
2023/11/06 05:34:45;;;;;;;5.75;4.20;;;;;;;16.20;100.00;102200.25;5022723;28;20085;-74
2023/11/06 05:37:10;;;;;;;5.95;4.32;;;;;;;16.16;100.00;102270.50;5016474;28;20034;-70
2023/11/06 05:39:39;;;;;;;9.15;5.20;;;;;;;16.45;100.00;102281.19;5010067;28;20022;-70
2023/11/06 05:42:06;;;;;;;5.50;4.57;;;;;;;19.27;100.00;102436.97;5016382;28;20511;-73
2023/11/06 05:44:31;;;;;;;7.30;4.20;;;;;;;20.88;100.00;102504.06;5015298;28;20088;-75
2023/11/06 05:46:57;;;;;;;6.40;4.95;;;;;;;16.54;100.00;102272.53;5013068;28;20034;-72
2023/11/06 05:49:22;;;;;;;7.78;4.90;;;;;;;17.23;100.00;102380.16;5019549;28;20032;-72
2023/11/06 05:51:49;;;;;;;8.00;5.50;;;;;;;19.88;100.00;102470.69;5014718;28;20038;-73
2023/11/06 05:54:15;;;;;;;6.93;6.22;;;;;;;21.68;100.00;102496.31;5021669;28;20029;-71
2023/11/06 05:56:40;;;;;;;8.02;6.88;;;;;;;20.88;100.00;102427.28;5008043;28;20052;-71
2023/11/06 05:59:06;;;;;;;16.88;12.07;;;;;;;20.67;100.00;102322.78;5015136;28;20108;-71
2023/11/06 06:01:31;;;;;;;26.60;21.70;;;;;;;19.58;100.00;102227.09;5014980;28;20421;-70
2023/11/06 06:03:57;;;;;;;20.27;16.67;;;;;;;19.06;100.00;102180.41;5014313;28;20026;-70
2023/11/06 06:06:30;;;;;;;25.15;19.63;;;;;;;22.31;100.00;102611.66;5063601;28;20437;-71
2023/11/06 06:08:55;;;;;;;12.40;10.38;;;;;;;21.70;100.00;102466.91;5064193;28;20434;-70
2023/11/06 06:11:21;;;;;;;10.65;7.53;;;;;;;21.27;100.00;102446.75;5064415;28;20033;-71
2023/11/06 06:13:46;;;;;;;6.82;6.00;;;;;;;20.60;100.00;102398.84;5046543;28;20043;-72
2023/11/06 06:16:12;;;;;;;6.65;5.80;;;;;;;22.81;100.00;102417.88;5062886;28;20033;-72
2023/11/06 06:18:38;;;;;;;5.20;4.18;;;;;;;21.59;100.00;102132.31;5063987;28;20032;-71
2023/11/06 06:21:03;;;;;;;8.25;4.95;;;;;;;22.73;100.00;102032.50;5064502;28;20033;-71
2023/11/06 06:23:29;;;;;;;7.97;6.40;;;;;;;23.54;100.00;101976.69;5062497;28;20035;-71
2023/11/06 06:25:54;;;;;;;5.05;4.00;;;;;;;18.90;100.00;101725.38;5045679;28;20067;-71
2023/11/06 06:28:19;;;;;;;4.35;3.80;;;;;;;22.25;100.00;101917.09;5063526;28;20475;-71
2023/11/06 06:30:45;;;;;;;4.70;3.63;;;;;;;21.39;100.00;101813.88;5063817;28;20029;-71
2023/11/06 06:33:10;;;;;;;7.90;4.28;;;;;;;21.54;100.00;101898.66;5063941;28;20506;-71
2023/11/06 06:35:36;;;;;;;5.47;3.97;;;;;;;22.76;100.00;101893.09;5062990;28;20033;-71
2023/11/06 06:38:01;;;;;;;8.32;4.90;;;;;;;22.54;100.00;101951.22;5064009;28;20029;-71
2023/11/06 06:40:27;;;;;;;6.00;4.10;;;;;;;19.45;100.00;101917.84;5063659;28;20028;-71
2023/11/06 06:42:52;;;;;;;4.90;4.28;;;;;;;18.46;100.00;101994.78;5062976;28;20029;-71
2023/11/06 06:45:17;;;;;;;7.70;4.70;;;;;;;16.42;100.00;101943.09;5063660;28;20102;-71
2023/11/06 06:47:43;;;;;;;5.47;4.72;;;;;;;15.98;100.00;101953.41;5063141;28;20036;-71
2023/11/06 06:50:09;;;;;;;7.05;4.95;;;;;;;16.14;100.00;101966.78;5063833;28;20037;-71
2023/11/06 06:52:35;;;;;;;6.10;4.70;;;;;;;16.21;100.00;101960.66;5045359;28;20479;-72
2023/11/06 06:55:00;;;;;;;5.38;4.20;;;;;;;16.04;100.00;101895.97;5063501;28;20070;-71
2023/11/06 06:57:25;;;;;;;7.60;4.50;;;;;;;15.93;100.00;101897.88;5063132;28;20032;-70
2023/11/06 06:59:51;;;;;;;6.28;4.30;;;;;;;16.83;100.00;101997.94;5063478;28;20033;-70
2023/11/06 07:02:16;;;;;;;6.78;4.40;;;;;;;16.15;100.00;101996.69;5062356;28;20484;-71
2023/11/06 07:04:42;;;;;;;6.93;3.92;;;;;;;16.46;100.00;102059.44;5062884;28;20048;-70
2023/11/06 07:07:07;;;;;;;5.30;4.05;;;;;;;16.53;100.00;102132.97;5063509;28;20028;-70
2023/11/06 07:09:33;;;;;;;6.65;4.40;;;;;;;16.52;100.00;102210.06;5062881;28;20411;-71
2023/11/06 07:12:00;;;;;;;6.50;4.50;;;;;;;16.57;100.00;102316.97;5061842;28;20032;-70
2023/11/06 07:14:28;;;;;;;5.85;4.80;;;;;;;16.82;100.00;102431.34;5062824;28;20059;-70
2023/11/06 07:16:54;;;;;;;7.07;4.10;;;;;;;16.99;100.00;102467.97;5054695;28;20116;-71
2023/11/06 07:19:19;;;;;;;8.35;4.28;;;;;;;16.62;100.00;102491.59;5049319;28;20059;-70
2023/11/06 07:21:45;;;;;;;4.43;3.78;;;;;;;17.13;100.00;102593.75;5048357;28;20087;-71
2023/11/06 07:24:10;;;;;;;5.22;3.92;;;;;;;16.90;100.00;102653.13;5049022;28;20108;-72
2023/11/06 07:26:36;;;;;;;4.93;3.25;;;;;;;16.77;100.00;102685.00;5049517;28;20464;-70
2023/11/06 07:29:02;;;;;;;4.90;3.70;;;;;;;16.47;100.00;102668.13;5049706;28;20031;-71
2023/11/06 07:31:27;;;;;;;5.57;3.70;;;;;;;17.05;100.00;102799.53;5049568;28;20033;-71
2023/11/06 07:33:53;;;;;;;4.45;3.45;;;;;;;16.51;100.00;102734.88;5031419;28;20032;-71
2023/11/06 07:36:18;;;;;;;5.85;3.58;;;;;;;16.17;100.00;102741.94;5048984;28;20094;-71
2023/11/06 07:38:44;;;;;;;5.65;3.53;;;;;;;16.20;100.00;102808.69;5049636;28;20210;-71
2023/11/06 07:41:11;;;;;;;4.78;3.08;;;;;;;16.06;100.00;102790.81;5049350;28;20111;-71
2023/11/06 07:43:37;;;;;;;4.40;3.05;;;;;;;16.66;100.00;102892.34;5049319;28;20503;-71
2023/11/06 07:46:02;;;;;;;5.85;3.70;;;;;;;16.18;100.00;102849.75;5031712;28;20119;-71
2023/11/06 07:48:28;;;;;;;5.55;3.20;;;;;;;16.85;100.00;102965.06;5049150;28;20033;-71
2023/11/06 07:50:57;;;;;;;5.30;3.40;;;;;;;17.46;100.00;103020.34;5048581;28;20049;-72
2023/11/06 07:53:22;;;;;;;6.53;3.50;;;;;;;17.41;100.00;103042.69;5049220;28;20564;-71
2023/11/06 07:55:48;;;;;;;6.20;3.78;;;;;;;17.07;100.00;103016.31;5048959;28;20037;-70
2023/11/06 07:58:13;;;;;;;6.18;3.30;;;;;;;17.05;100.00;103042.91;5047092;28;20045;-70
2023/11/06 08:00:40;;;;;;;9.63;3.30;;;;;;;16.66;100.00;102992.53;5049387;28;20399;-71
2023/11/06 08:03:06;;;;;;;5.53;3.35;;;;;;;17.10;100.00;103101.16;5031030;28;20762;-71
2023/11/06 08:05:32;;;;;;;5.32;3.38;;;;;;;17.11;100.00;103122.59;5030262;28;20132;-70
2023/11/06 08:07:57;;;;;;;5.28;3.00;;;;;;;16.77;100.00;103162.13;5048427;28;20033;-70
2023/11/06 08:10:27;;;;;;;5.82;3.40;;;;;;;17.25;100.00;103257.97;5048473;28;20407;-70
2023/11/06 08:12:53;;;;;;;4.03;2.85;;;;;;;17.59;100.00;103167.84;5031014;28;20067;-71
2023/11/06 08:15:19;;;;;;;6.05;3.30;;;;;;;17.46;100.00;103190.19;5048361;28;20040;-70
2023/11/06 08:17:44;;;;;;;3.88;2.53;;;;;;;17.77;100.00;103230.34;5048084;28;20495;-70
2023/11/06 08:20:11;;;;;;;3.72;2.60;;;;;;;18.01;100.00;103245.69;5048325;28;20029;-70
2023/11/06 08:22:36;;;;;;;7.15;2.90;;;;;;;17.31;100.00;103169.69;5048829;28;20029;-71
2023/11/06 08:25:02;;;;;;;4.50;2.45;;;;;;;17.70;100.00;103226.13;5048550;28;20071;-70
2023/11/06 08:27:28;;;;;;;7.00;2.83;;;;;;;17.52;100.00;103171.31;5047875;28;20404;-71
2023/11/06 08:29:55;;;;;;;9.38;4.80;;;;;;;18.01;100.00;103255.13;5046902;28;20033;-70
2023/11/06 08:32:20;;;;;;;3.47;2.28;;;;;;;17.56;100.00;103170.44;5048203;28;20108;-70
2023/11/06 08:34:47;;;;;;;4.15;2.83;;;;;;;18.19;100.00;103236.97;5047024;28;20112;-71
2023/11/06 08:37:13;;;;;;;5.85;2.92;;;;;;;18.36;100.00;103249.75;5048494;28;20028;-70
2023/11/06 08:39:49;;;;;;;4.82;2.92;;;;;;;18.28;100.00;103224.03;5030165;28;20090;-70
2023/11/06 08:42:15;;;;;;;4.82;2.85;;;;;;;18.60;100.00;103234.94;5029908;28;20415;-70
2023/11/06 08:44:42;;;;;;;6.35;2.40;;;;;;;18.54;100.00;103187.78;5029936;28;20029;-70
2023/11/06 08:47:11;;;;;;;5.18;2.33;;;;;;;18.62;100.00;103149.88;5048407;28;20505;-70
2023/11/06 08:49:37;;;;;;;5.97;2.65;;;;;;;18.67;100.00;103034.66;5048483;28;20029;-70
2023/11/06 08:52:03;;;;;;;4.32;2.55;;;;;;;18.78;100.00;102988.97;5046867;28;20086;-70
2023/11/06 08:54:30;;;;;;;6.13;2.30;;;;;;;18.94;100.00;102968.13;5048417;28;20499;-70
2023/11/06 08:56:57;;;;;;;4.45;2.45;;;;;;;18.72;100.00;102885.91;5046296;28;20032;-70
2023/11/06 08:59:23;;;;;;;6.72;2.80;;;;;;;19.24;100.00;102904.88;5048155;28;20032;-70
2023/11/06 09:01:50;;;;;;;5.22;2.67;;;;;;;19.19;100.00;102869.72;5047848;28;20078;-70
2023/11/06 09:04:16;;;;;;;5.53;2.42;;;;;;;19.00;100.00;102792.63;5046241;28;20476;-70
2023/11/06 09:06:41;;;;;;;6.13;2.75;;;;;;;19.15;100.00;102803.56;5047497;28;20514;-70
2023/11/06 09:09:08;;;;;;;4.40;2.70;;;;;;;19.00;100.00;102733.31;5048232;28;20025;-70
2023/11/06 09:11:35;;;;;;;8.07;2.45;;;;;;;19.59;100.00;102793.28;5046691;28;20036;-70
2023/11/06 09:14:03;;;;;;;4.97;3.05;;;;;;;19.95;100.00;102810.59;5047078;28;20092;-69
2023/11/06 09:16:30;;;;;;;4.82;3.38;;;;;;;20.04;100.00;102773.38;5047511;28;20020;-70
2023/11/06 09:18:56;;;;;;;5.50;2.95;;;;;;;19.60;100.00;102696.88;5047818;28;20039;-70
2023/11/06 09:21:21;;;;;;;4.68;3.00;;;;;;;20.15;100.00;102742.97;5047363;28;20037;-70
2023/11/06 09:23:47;;;;;;;4.18;2.80;;;;;;;19.80;100.00;102661.13;5028765;28;20086;-71
2023/11/06 09:26:12;;;;;;;3.33;2.70;;;;;;;20.30;100.00;102702.13;5047263;28;20087;-71
2023/11/06 09:28:38;;;;;;;4.75;2.58;;;;;;;20.32;100.00;102645.25;5047625;28;20025;-70
2023/11/06 09:31:04;;;;;;;6.25;2.47;;;;;;;20.30;100.00;102618.59;5046086;28;20063;-72
2023/11/06 09:33:30;;;;;;;3.95;2.40;;;;;;;20.54;100.00;102620.56;5047504;28;20052;-71
2023/11/06 09:35:55;;;;;;;4.00;2.60;;;;;;;20.69;100.00;102578.75;5029202;28;20469;-69
2023/11/06 09:38:21;;;;;;;5.22;2.40;;;;;;;20.95;100.00;102572.84;5029877;28;20040;-70
2023/11/06 09:40:46;;;;;;;4.53;2.42;;;;;;;21.10;100.00;102556.88;5047016;28;20025;-71
2023/11/06 09:43:12;;;;;;;4.72;2.35;;;;;;;21.13;100.00;102515.41;5047164;28;20453;-71
2023/11/06 09:45:37;;;;;;;4.70;2.58;;;;;;;20.94;100.00;102472.81;5047406;28;20082;-69
2023/11/06 09:48:08;;;;;;;6.57;2.40;;;;;;;20.93;100.00;102440.09;5046833;28;20438;-70
2023/11/06 09:50:35;;;;;;;6.85;2.30;;;;;;;21.08;100.00;102418.94;5045858;28;20108;-70
2023/11/06 09:53:01;;;;;;;4.97;2.20;;;;;;;21.37;100.00;102445.56;5046763;28;20033;-71
2023/11/06 09:55:28;;;;;;;3.75;1.80;;;;;;;21.33;100.00;102368.06;5046709;28;20040;-70
2023/11/06 09:57:55;;;;;;;4.18;1.85;;;;;;;21.25;100.00;102344.19;5046785;28;20096;-71
2023/11/06 10:00:22;;;;;;;5.13;1.90;;;;;;;21.39;100.00;102239.25;5045536;28;20027;-70
2023/11/06 10:02:53;;;;;;;4.95;1.55;;;;;;;21.59;100.00;102247.13;5045903;28;20087;-70
2023/11/06 10:05:22;;;;;;;3.55;1.50;;;;;;;22.25;100.00;102362.97;5045392;28;20045;-70
2023/11/06 10:07:52;;;;;;;4.30;1.40;;;;;;;21.93;100.00;102573.22;5046630;28;20033;-69
2023/11/06 10:10:19;;;;;;;6.63;1.77;;;;;;;22.16;100.00;102937.97;5046750;28;20051;-70
2023/11/06 10:12:59;;;;;;;5.20;2.00;;;;;;;21.71;100.00;103245.75;5046545;28;20376;-70
2023/11/06 10:15:25;;;;;;;3.47;1.48;;;;;;;21.90;100.00;103406.91;5046238;28;20037;-69
2023/11/06 10:17:50;;;;;;;4.18;1.70;;;;;;;22.37;100.00;103357.50;5046850;28;20427;-70
2023/11/06 10:20:16;;;;;;;5.07;1.80;;;;;;;22.07;100.00;103346.06;5046383;28;20025;-72
2023/11/06 10:22:54;;;;;;;4.32;1.80;;;;;;;22.12;100.00;103987.28;5046696;28;20083;-71
2023/11/06 10:25:27;;;;;;;3.63;1.50;;;;;;;22.20;100.00;103896.41;5027426;28;20047;-73
2023/11/06 10:27:54;;;;;;;2.58;1.30;;;;;;;21.69;100.00;103770.06;5045023;28;20108;-71
2023/11/06 10:30:20;;;;;;;4.03;1.48;;;;;;;22.44;100.00;103798.31;5044169;28;20040;-74
2023/11/06 10:32:45;;;;;;;4.40;1.50;;;;;;;22.53;100.00;103711.69;5047267;28;20033;-72
2023/11/06 10:35:14;;;;;;;4.32;1.52;;;;;;;22.34;100.00;103529.59;5046768;28;20029;-72
2023/11/06 10:37:42;;;;;;;3.78;1.48;;;;;;;22.68;100.00;103388.81;5043416;28;20026;-73
2023/11/06 10:40:12;;;;;;;5.60;1.73;;;;;;;22.53;100.00;103265.44;5047094;28;20024;-72
2023/11/06 10:42:46;;;;;;;3.78;2.00;;;;;;;22.48;100.00;103246.56;5028346;28;20025;-73
2023/11/06 10:45:14;;;;;;;5.47;1.98;;;;;;;22.79;100.00;103109.97;5045306;28;20041;-74
2023/11/06 10:47:45;;;;;;;5.63;1.70;;;;;;;23.10;100.00;103138.47;5046277;28;20078;-74
2023/11/06 10:50:15;;;;;;;6.72;2.30;;;;;;;22.40;100.00;102937.25;5047260;28;20032;-76
2023/11/06 10:52:44;;;;;;;4.85;1.98;;;;;;;23.12;100.00;102882.22;5047496;28;20045;-70
2023/11/06 10:55:13;;;;;;;6.32;1.50;;;;;;;23.13;100.00;102712.56;5049717;28;20033;-73
2023/11/06 10:57:40;;;;;;;3.10;1.40;;;;;;;22.81;100.00;102455.94;5049913;28;20025;-73
2023/11/06 11:00:10;;;;;;;5.90;1.63;;;;;;;22.92;100.00;102409.63;5050429;28;20494;-72
2023/11/06 11:03:05;;;;;;;4.47;1.42;;;;;;;23.03;100.00;102294.09;5050775;28;20021;-73
2023/11/06 11:05:32;;;;;;;5.85;1.42;;;;;;;23.35;100.00;102053.84;5026039;28;20054;-73
2023/11/06 11:07:59;;;;;;;3.38;1.15;;;;;;;23.45;100.00;101952.94;5027683;28;20037;-71
2023/11/06 11:10:29;;;;;;;3.38;1.25;;;;;;;23.66;100.00;101772.59;5030422;28;20463;-71
2023/11/06 11:12:58;;;;;;;4.90;1.42;;;;;;;23.63;100.00;101372.72;5029220;28;20033;-71